Sibu, Malaysia
Current Conditions -  °F | °C
As of 3:00 AM on Friday 24 Oct 2014 (Local Time) from WBGS Reporting Station
Broken Clouds Broken Clouds  
Wind Chill: 73°   Ceiling: 15000
Heat Index: 73°   Visibility: 6mi
Dew Point: 73°   Wind: 3mph
Humidity: 100%   Direction: 220°SW
Pressure: 29.83"   Gusts: NA
Location:  2.3°N, 111.83°E
Report Text: WBGS 231900Z 22003KT 9999 SCT003 BKN150 23/23 Q1010
Loading
Personal Weather Stations






























Interactive Weather Map
Tropical Storm Tracking
New forecast layout! Learn more

10-Day Weather Forecast

Advertisements
Track Severe Weather on mobile